Time;durP1;ratioP1;P1;durP2;ratioP2;P2;SDS_P1;SDS_P2;PMS_P1;PMS_P2;Temp;Humidity;BMP_temperature;BMP_pressure;BME280_temperature;BME280_humidity;BME280_pressure;Samples;Min_cycle;Max_cycle;Signal;HPM_P1;HPM_P2
2022/10/23 00:00:27;;;;;;;17.40;7.30;;;;;;;11.19;100.00;101307.97;5225328;28;20449;-79
2022/10/23 00:02:58;;;;;;;22.92;7.57;;;;;;;11.16;100.00;101298.41;5225431;28;20167;-79
2022/10/23 00:05:29;;;;;;;19.77;8.45;;;;;;;11.15;100.00;101297.56;5225234;28;20032;-78
2022/10/23 00:07:59;;;;;;;17.42;8.10;;;;;;;11.14;100.00;101298.59;5224426;28;20032;-79
2022/10/23 00:10:30;;;;;;;18.23;7.68;;;;;;;11.12;100.00;101300.56;5225295;28;20489;-78
2022/10/23 00:13:01;;;;;;;11.90;6.75;;;;;;;11.10;100.00;101291.00;5225069;28;20028;-79
2022/10/23 00:15:34;;;;;;;17.75;6.60;;;;;;;11.09;100.00;101294.66;5225130;28;20399;-79
2022/10/23 00:18:04;;;;;;;18.30;7.72;;;;;;;11.11;100.00;101293.53;5224050;28;20491;-78
2022/10/23 00:20:35;;;;;;;16.70;6.60;;;;;;;11.12;100.00;101295.19;5224234;28;20021;-79
2022/10/23 00:23:05;;;;;;;17.73;6.10;;;;;;;11.15;100.00;101288.69;5225093;28;20032;-80
2022/10/23 00:25:37;;;;;;;19.48;6.72;;;;;;;11.20;100.00;101290.88;5224714;28;20021;-79
2022/10/23 00:28:08;;;;;;;26.08;6.47;;;;;;;11.20;100.00;101294.41;5224478;28;20024;-80
2022/10/23 00:30:38;;;;;;;11.27;5.68;;;;;;;11.20;100.00;101302.47;5224435;28;20036;-80
2022/10/23 00:33:09;;;;;;;16.05;5.80;;;;;;;11.22;100.00;101299.63;5224926;28;20041;-79
2022/10/23 00:35:41;;;;;;;19.48;6.30;;;;;;;11.23;100.00;101306.66;5224676;28;20028;-78
2022/10/23 00:38:11;;;;;;;17.50;6.75;;;;;;;11.23;100.00;101295.94;5223052;28;20135;-78
2022/10/23 00:40:44;;;;;;;16.08;7.40;;;;;;;11.25;100.00;101297.47;5224598;28;20115;-78
2022/10/23 00:43:23;;;;;;;18.85;7.00;;;;;;;11.27;100.00;101276.66;5224363;28;20025;-81
2022/10/23 00:45:54;;;;;;;21.48;7.70;;;;;;;11.29;100.00;101276.47;5211406;28;20390;-79
2022/10/23 00:48:27;;;;;;;17.30;6.88;;;;;;;11.30;100.00;101287.09;5223872;28;20029;-79
2022/10/23 00:50:57;;;;;;;21.42;7.47;;;;;;;11.30;100.00;101283.56;5224483;28;20025;-78
2022/10/23 00:53:28;;;;;;;18.08;6.72;;;;;;;11.27;100.00;101279.34;5224385;28;20036;-81
2022/10/23 00:55:59;;;;;;;15.40;6.50;;;;;;;11.23;100.00;101272.59;5224294;28;20021;-80
2022/10/23 00:58:29;;;;;;;18.85;6.68;;;;;;;11.21;100.00;101268.41;5223634;28;20028;-79
2022/10/23 01:00:59;;;;;;;21.35;6.50;;;;;;;11.21;100.00;101268.41;5224457;28;20642;-79
2022/10/23 01:03:30;;;;;;;12.75;6.18;;;;;;;11.23;100.00;101253.78;5224741;28;20104;-78
2022/10/23 01:06:23;;;;;;;18.38;6.68;;;;;;;11.26;100.00;101247.28;5224200;28;20479;-81
2022/10/23 01:09:14;;;;;;;17.98;7.03;;;;;;;11.27;100.00;101246.25;5214117;28;20056;-79
2022/10/23 01:12:34;;;;;;;23.27;6.65;;;;;;;11.28;100.00;101250.63;5212538;28;20031;-79
2022/10/23 01:15:30;;;;;;;14.48;5.63;;;;;;;11.27;100.00;101244.41;5249510;28;20040;-81
2022/10/23 01:18:25;;;;;;;15.90;6.25;;;;;;;11.24;100.00;101246.56;5222799;28;20031;-79
2022/10/23 01:21:23;;;;;;;17.42;6.43;;;;;;;11.22;100.00;101241.38;5223967;28;20406;-79
2022/10/23 01:24:19;;;;;;;19.27;5.70;;;;;;;11.22;100.00;101245.91;5220200;28;20403;-78
2022/10/23 01:27:16;;;;;;;19.60;6.30;;;;;;;11.23;100.00;101250.28;5208507;28;20040;-79
2022/10/23 01:30:08;;;;;;;18.83;5.88;;;;;;;11.23;100.00;101243.06;5223777;28;20025;-79
2022/10/23 01:33:06;;;;;;;14.70;5.93;;;;;;;11.25;100.00;101248.28;5222721;28;20025;-79
2022/10/23 01:35:46;;;;;;;23.33;6.80;;;;;;;11.27;100.00;101247.09;5222428;28;20059;-79
2022/10/23 01:38:24;;;;;;;17.98;6.82;;;;;;;11.31;100.00;101231.50;5223374;28;20053;-79
2022/10/23 01:40:54;;;;;;;18.08;5.78;;;;;;;11.34;100.00;101239.22;5223796;28;20025;-79
2022/10/23 01:43:31;;;;;;;18.95;6.07;;;;;;;11.38;100.00;101245.97;5223602;28;20542;-79
2022/10/23 01:46:09;;;;;;;17.27;5.97;;;;;;;11.35;100.00;101231.03;5223823;28;20082;-81
2022/10/23 01:48:50;;;;;;;13.68;4.85;;;;;;;11.37;100.00;101222.81;5221994;28;20107;-79
2022/10/23 01:51:24;;;;;;;17.05;6.22;;;;;;;11.38;100.00;101224.47;5222614;28;20120;-79
2022/10/23 01:53:58;;;;;;;22.52;5.72;;;;;;;11.38;100.00;101213.75;5223548;28;20020;-79
2022/10/23 01:56:32;;;;;;;15.70;5.82;;;;;;;11.39;100.00;101218.09;5223570;28;20131;-79
2022/10/23 01:59:08;;;;;;;11.35;5.75;;;;;;;11.41;100.00;101214.25;5223451;28;20075;-78
2022/10/23 02:01:44;;;;;;;14.90;6.05;;;;;;;11.46;100.00;101200.34;5222768;28;20029;-79
2022/10/23 02:04:21;;;;;;;24.60;7.32;;;;;;;11.49;100.00;101205.38;5224185;28;20021;-79
2022/10/23 02:06:53;;;;;;;42.35;8.18;;;;;;;11.53;100.00;101197.84;5223812;28;20040;-79
2022/10/23 02:09:24;;;;;;;17.30;5.70;;;;;;;11.55;100.00;101207.44;5224054;28;20021;-79
2022/10/23 02:12:30;;;;;;;12.80;5.38;;;;;;;11.57;100.00;101199.19;5224448;28;20032;-79
2022/10/23 02:15:11;;;;;;;12.25;5.00;;;;;;;11.59;100.00;101187.25;5225261;28;20025;-79
2022/10/23 02:17:48;;;;;;;26.15;6.30;;;;;;;11.59;100.00;101183.72;5224544;28;20036;-79
2022/10/23 02:20:27;;;;;;;16.70;5.60;;;;;;;11.62;100.00;101178.88;5224055;28;20025;-79
2022/10/23 02:23:21;;;;;;;15.90;5.20;;;;;;;11.62;100.00;101178.03;5223287;28;20029;-80
2022/10/23 02:26:04;;;;;;;9.48;4.53;;;;;;;11.62;100.00;101178.03;5221926;28;20061;-79
2022/10/23 02:28:48;;;;;;;19.27;5.13;;;;;;;11.64;100.00;101174.16;5221616;28;20442;-80
2022/10/23 02:31:22;;;;;;;10.30;4.68;;;;;;;11.63;100.00;101159.06;5211043;28;20083;-82
2022/10/23 02:33:52;;;;;;;17.75;5.07;;;;;;;11.63;100.00;101148.31;5223338;28;20021;-79
2022/10/23 02:36:22;;;;;;;13.38;5.10;;;;;;;11.68;100.00;101156.72;5223133;28;20051;-79
2022/10/23 02:38:53;;;;;;;16.48;4.90;;;;;;;11.71;100.00;101146.66;5222397;28;20037;-81
2022/10/23 02:41:45;;;;;;;15.55;4.85;;;;;;;11.74;100.00;101143.63;5223479;28;20202;-80
2022/10/23 02:44:33;;;;;;;12.35;4.70;;;;;;;11.78;100.00;101140.44;5227371;28;20035;-79
2022/10/23 02:47:03;;;;;;;13.88;5.20;;;;;;;11.81;100.00;101131.22;5225151;28;20021;-80
2022/10/23 02:50:04;;;;;;;10.57;4.85;;;;;;;11.82;100.00;101127.53;5226017;28;20025;-79
2022/10/23 02:52:50;;;;;;;9.02;4.28;;;;;;;11.82;100.00;101128.38;5215583;28;20041;-79
2022/10/23 02:55:20;;;;;;;16.08;3.80;;;;;;;11.82;100.00;101124.84;5226910;28;20023;-79
2022/10/23 02:58:08;;;;;;;18.48;5.07;;;;;;;11.84;100.00;101122.81;5226556;28;20120;-80
2022/10/23 03:00:45;;;;;;;13.88;4.60;;;;;;;11.82;100.00;101123.00;5225250;28;20029;-79
2022/10/23 03:03:52;;;;;;;10.95;4.22;;;;;;;11.82;100.00;101114.09;5226617;28;20021;-80
2022/10/23 03:06:23;;;;;;;16.30;4.53;;;;;;;11.80;100.00;101108.88;5222689;28;20399;-79
2022/10/23 03:08:59;;;;;;;8.65;3.80;;;;;;;11.80;100.00;101108.03;5225923;28;20021;-79
2022/10/23 03:11:29;;;;;;;7.53;3.75;;;;;;;11.80;100.00;101108.88;5226566;28;20035;-79
2022/10/23 03:14:00;;;;;;;13.02;4.22;;;;;;;11.82;100.00;101109.56;5225493;28;20029;-80
2022/10/23 03:16:31;;;;;;;12.35;4.30;;;;;;;11.81;100.00;101097.09;5226305;28;20032;-82
2022/10/23 03:19:01;;;;;;;14.48;4.13;;;;;;;11.79;100.00;101098.25;5226524;28;20036;-80
2022/10/23 03:21:32;;;;;;;9.90;3.95;;;;;;;11.76;100.00;101104.00;5226080;28;20025;-80
2022/10/23 03:24:02;;;;;;;10.13;3.63;;;;;;;11.75;100.00;101100.47;5226437;28;20061;-79
2022/10/23 03:26:33;;;;;;;11.25;4.75;;;;;;;11.75;100.00;101094.25;5225014;28;20021;-78
2022/10/23 03:29:04;;;;;;;11.30;4.38;;;;;;;11.73;100.00;101093.56;5226030;28;20020;-79
2022/10/23 03:31:34;;;;;;;11.75;4.80;;;;;;;11.72;100.00;101086.50;5258399;28;20032;-80
2022/10/23 03:34:09;;;;;;;11.10;3.95;;;;;;;11.69;100.00;101082.28;5225861;28;20483;-79
2022/10/23 03:36:40;;;;;;;;;;;;;;;11.68;100.00;101083.31;5226401;28;20060;-78
2022/10/23 03:39:11;;;;;;;16.30;4.10;;;;;;;11.66;100.00;101070.06;5225412;28;20386;-78
2022/10/23 03:41:41;;;;;;;12.05;4.22;;;;;;;11.64;100.00;101079.28;5225877;28;20052;-78
2022/10/23 03:44:12;;;;;;;16.83;4.25;;;;;;;11.60;100.00;101067.22;5225814;28;20123;-80
2022/10/23 03:46:43;;;;;;;11.23;4.30;;;;;;;11.59;100.00;101060.13;5224221;28;20346;-79
2022/10/23 03:49:13;;;;;;;13.45;3.42;;;;;;;11.60;100.00;101054.59;5257783;28;20048;-78
2022/10/23 03:51:50;;;;;;;8.48;3.15;;;;;;;11.60;100.00;101061.84;5225758;28;20053;-79
2022/10/23 03:54:23;;;;;;;8.52;3.95;;;;;;;11.57;100.00;101046.03;5224595;28;20021;-81
2022/10/23 03:56:54;;;;;;;9.27;3.65;;;;;;;11.55;100.00;101050.75;5224495;28;20025;-79
2022/10/23 03:59:25;;;;;;;7.43;3.45;;;;;;;11.53;100.00;101048.22;5225513;28;20043;-79
2022/10/23 04:01:55;;;;;;;9.57;3.88;;;;;;;11.58;100.00;101048.53;5225513;28;20032;-79
2022/10/23 04:04:26;;;;;;;8.32;3.90;;;;;;;11.59;100.00;101049.38;5225594;28;20021;-79
2022/10/23 04:06:56;;;;;;;15.00;3.90;;;;;;;11.59;100.00;101050.22;5223814;28;20032;-81
2022/10/23 04:09:27;;;;;;;7.15;3.67;;;;;;;11.61;100.00;101048.22;5224963;28;20371;-79
2022/10/23 04:11:57;;;;;;;9.35;3.85;;;;;;;11.60;100.00;101049.22;5225575;28;20029;-80
2022/10/23 04:14:28;;;;;;;10.23;3.97;;;;;;;11.62;100.00;101049.06;5224306;28;20033;-79
2022/10/23 04:16:58;;;;;;;13.38;4.00;;;;;;;11.63;100.00;101050.72;5223452;28;20044;-79
2022/10/23 04:19:29;;;;;;;12.32;4.28;;;;;;;11.66;100.00;101043.19;5224962;28;20490;-79
2022/10/23 04:21:59;;;;;;;9.77;3.60;;;;;;;11.65;100.00;101044.19;5224931;28;20028;-80
2022/10/23 04:24:29;;;;;;;11.27;4.28;;;;;;;11.66;100.00;101050.41;5223684;28;20024;-82
2022/10/23 04:27:00;;;;;;;8.07;4.00;;;;;;;11.66;100.00;101034.28;5224741;28;20025;-79
2022/10/23 04:29:31;;;;;;;11.93;3.95;;;;;;;11.67;100.00;101033.25;5224776;28;20029;-79
2022/10/23 04:32:01;;;;;;;11.02;4.82;;;;;;;11.62;100.00;101036.47;5224533;28;20491;-79
2022/10/23 04:34:32;;;;;;;8.18;3.72;;;;;;;11.62;100.00;101035.63;5224570;28;20036;-80
2022/10/23 04:37:02;;;;;;;10.85;3.78;;;;;;;11.61;100.00;101033.94;5223957;28;20487;-79
2022/10/23 04:39:33;;;;;;;9.63;4.13;;;;;;;11.60;100.00;101029.59;5223471;28;20155;-79
2022/10/23 04:42:03;;;;;;;12.90;3.80;;;;;;;11.58;100.00;101031.59;5224560;28;20029;-79
2022/10/23 04:44:34;;;;;;;9.07;3.38;;;;;;;11.56;100.00;101029.06;5257474;28;20124;-79
2022/10/23 04:47:04;;;;;;;8.68;4.13;;;;;;;11.56;100.00;101022.88;5223643;28;20021;-80
2022/10/23 04:49:35;;;;;;;10.60;4.00;;;;;;;11.53;100.00;101020.50;5224786;28;20020;-79
2022/10/23 04:52:05;;;;;;;13.15;4.32;;;;;;;11.51;100.00;101025.22;5224348;28;20151;-78
2022/10/23 04:54:37;;;;;;;9.50;3.90;;;;;;;11.52;100.00;101025.03;5224531;28;20017;-80
2022/10/23 04:57:07;;;;;;;11.35;3.90;;;;;;;11.53;100.00;101023.19;5223715;28;20025;-79
2022/10/23 04:59:38;;;;;;;10.10;4.75;;;;;;;11.54;100.00;101023.00;5222905;28;20051;-81
2022/10/23 05:02:08;;;;;;;9.07;4.72;;;;;;;11.57;100.00;101028.06;5225367;28;20479;-80
2022/10/23 05:04:39;;;;;;;10.02;4.35;;;;;;;11.62;100.00;101014.13;5225099;28;20535;-81
2022/10/23 05:07:09;;;;;;;13.43;4.30;;;;;;;11.65;100.00;101006.56;5223629;28;20021;-79
2022/10/23 05:09:39;;;;;;;6.32;3.90;;;;;;;11.66;100.00;100996.66;5224389;28;20107;-80
2022/10/23 05:12:10;;;;;;;12.18;4.63;;;;;;;11.66;100.00;100997.50;5224372;28;20436;-76
2022/10/23 05:14:40;;;;;;;9.50;4.65;;;;;;;11.68;100.00;101002.69;5224179;28;20581;-75
2022/10/23 05:17:18;;;;;;;8.82;4.57;;;;;;;11.72;100.00;101003.19;5223411;28;20487;-76
2022/10/23 05:19:53;;;;;;;13.48;4.68;;;;;;;11.76;100.00;101000.00;5223963;28;20435;-75
2022/10/23 05:22:29;;;;;;;11.02;4.45;;;;;;;11.78;100.00;100995.28;5223560;28;20044;-77
2022/10/23 05:25:01;;;;;;;17.70;5.32;;;;;;;11.83;100.00;100998.31;5222859;28;20032;-76
2022/10/23 05:27:31;;;;;;;8.60;4.70;;;;;;;11.85;100.00;100995.50;5223004;28;20028;-76
2022/10/23 05:30:03;;;;;;;12.23;4.45;;;;;;;11.84;100.00;100994.63;5223935;28;20448;-76
2022/10/23 05:32:35;;;;;;;17.35;5.07;;;;;;;11.89;100.00;100991.44;5223405;28;20048;-76
2022/10/23 05:35:10;;;;;;;8.63;4.10;;;;;;;11.87;100.00;100988.91;5223836;28;20021;-76
2022/10/23 05:37:42;;;;;;;11.23;4.32;;;;;;;11.85;100.00;100982.06;5222953;28;20154;-77
2022/10/23 05:40:13;;;;;;;9.15;4.03;;;;;;;11.84;100.00;100989.25;5223525;28;20479;-76
2022/10/23 05:42:43;;;;;;;8.63;4.45;;;;;;;11.82;100.00;100983.22;5223806;28;20078;-75
2022/10/23 05:45:14;;;;;;;10.32;4.45;;;;;;;11.83;100.00;100979.50;5223094;28;20025;-76
2022/10/23 05:47:45;;;;;;;7.15;3.75;;;;;;;11.82;100.00;100975.16;5223246;28;20060;-76
2022/10/23 05:50:15;;;;;;;12.90;4.20;;;;;;;11.81;100.00;100975.31;5223445;28;20051;-75
2022/10/23 05:52:47;;;;;;;10.45;4.90;;;;;;;11.79;100.00;100970.06;5223782;28;20449;-76
2022/10/23 05:55:17;;;;;;;5.65;3.67;;;;;;;11.78;100.00;100962.19;5222088;28;20099;-76
2022/10/23 05:57:48;;;;;;;6.65;3.85;;;;;;;11.80;100.00;100966.41;5222486;28;20113;-76
2022/10/23 06:00:18;;;;;;;9.48;4.68;;;;;;;11.81;100.00;100957.31;5223283;28;20083;-75
2022/10/23 06:02:49;;;;;;;9.85;4.40;;;;;;;11.78;100.00;100956.81;5223575;28;20025;-75
2022/10/23 06:05:19;;;;;;;11.73;4.10;;;;;;;11.79;100.00;100950.44;5223689;28;20028;-75
2022/10/23 06:07:50;;;;;;;14.75;5.15;;;;;;;11.78;100.00;100946.06;5222704;28;20398;-75
2022/10/23 06:10:20;;;;;;;9.55;4.13;;;;;;;11.79;100.00;100939.69;5223069;28;20071;-76
2022/10/23 06:12:50;;;;;;;10.43;4.53;;;;;;;11.78;100.00;100938.00;5223135;28;20499;-75
2022/10/23 06:15:21;;;;;;;14.15;4.60;;;;;;;11.79;100.00;100932.44;5223160;28;20108;-76
2022/10/23 06:17:51;;;;;;;11.23;4.78;;;;;;;11.81;100.00;100929.59;5224243;28;20024;-75
2022/10/23 06:20:22;;;;;;;11.70;4.55;;;;;;;11.82;100.00;100925.94;5227516;28;20083;-76
2022/10/23 06:22:52;;;;;;;12.40;5.05;;;;;;;11.84;100.00;100923.91;5226902;28;20025;-76
2022/10/23 06:25:23;;;;;;;15.00;4.82;;;;;;;11.87;100.00;100928.94;5227434;28;20117;-76
2022/10/23 06:27:53;;;;;;;15.50;4.32;;;;;;;11.90;100.00;100920.53;5226397;28;20104;-76
2022/10/23 06:30:24;;;;;;;11.88;4.47;;;;;;;11.91;100.00;100924.91;5227222;28;20048;-76
2022/10/23 06:32:54;;;;;;;10.18;4.30;;;;;;;11.90;100.00;100920.53;5225681;28;20024;-77
2022/10/23 06:35:24;;;;;;;14.55;4.70;;;;;;;11.90;100.00;100912.47;5226470;28;20108;-76
2022/10/23 06:37:55;;;;;;;16.90;6.20;;;;;;;11.94;100.00;100913.78;5226563;28;20055;-76
2022/10/23 06:40:25;;;;;;;8.63;4.63;;;;;;;11.96;100.00;100917.16;5226689;28;20101;-77
2022/10/23 06:42:56;;;;;;;7.60;3.70;;;;;;;12.00;100.00;100914.94;5227109;28;20108;-76
2022/10/23 06:45:28;;;;;;;14.75;5.05;;;;;;;12.00;100.00;100915.81;5226802;28;20055;-76
2022/10/23 06:47:59;;;;;;;10.88;4.72;;;;;;;12.04;100.00;100919.78;5226339;28;20502;-76
2022/10/23 06:50:30;;;;;;;12.23;4.68;;;;;;;12.09;100.00;100917.44;5226737;28;20025;-75
2022/10/23 06:53:01;;;;;;;15.00;4.53;;;;;;;12.12;100.00;100911.72;5226914;28;20032;-76
2022/10/23 06:55:32;;;;;;;16.20;5.05;;;;;;;12.18;100.00;100904.78;5226479;28;20031;-76
2022/10/23 06:58:03;;;;;;;7.78;4.18;;;;;;;12.23;100.00;100896.19;5225731;28;20598;-76
2022/10/23 07:00:33;;;;;;;11.68;5.03;;;;;;;12.25;100.00;100903.09;5225279;28;20091;-76
2022/10/23 07:03:04;;;;;;;14.35;4.38;;;;;;;12.30;100.00;100898.03;5226496;28;20021;-77
2022/10/23 07:05:35;;;;;;;9.35;4.20;;;;;;;12.37;100.00;100903.53;5226656;28;20025;-78
2022/10/23 07:08:06;;;;;;;7.60;3.85;;;;;;;12.40;100.00;100903.19;5225808;28;20029;-78
2022/10/23 07:10:36;;;;;;;10.60;4.60;;;;;;;12.41;100.00;100908.38;5226303;28;20049;-78
2022/10/23 07:13:08;;;;;;;10.13;4.80;;;;;;;12.45;100.00;100914.25;5226417;28;20112;-78
2022/10/23 07:15:38;;;;;;;10.43;4.35;;;;;;;12.50;100.00;100908.31;5226417;28;20029;-77
2022/10/23 07:18:14;;;;;;;12.25;4.35;;;;;;;12.56;100.00;100913.84;5225604;28;20055;-77
2022/10/23 07:20:48;;;;;;;8.70;4.10;;;;;;;12.65;100.00;100914.59;5225067;28;20379;-78
2022/10/23 07:23:18;;;;;;;10.88;4.20;;;;;;;12.73;100.00;100913.72;5225756;28;20086;-77
2022/10/23 07:25:49;;;;;;;8.55;4.53;;;;;;;12.78;100.00;100914.88;5226242;28;20013;-75
2022/10/23 07:28:19;;;;;;;7.28;4.63;;;;;;;12.85;100.00;100909.59;5225357;28;20052;-76
2022/10/23 07:30:57;;;;;;;8.85;5.20;;;;;;;12.91;100.00;100906.22;5225843;28;20072;-76
2022/10/23 07:33:28;;;;;;;20.23;4.70;;;;;;;12.98;100.00;100906.31;5225985;28;20053;-77
2022/10/23 07:35:58;;;;;;;15.05;4.82;;;;;;;13.06;100.00;100904.41;5225780;28;20116;-77
2022/10/23 07:38:29;;;;;;;13.30;4.97;;;;;;;13.12;100.00;100900.97;5225138;28;20398;-77
2022/10/23 07:41:00;;;;;;;9.63;4.55;;;;;;;13.19;100.00;100899.22;5225935;28;20087;-77
2022/10/23 07:43:31;;;;;;;9.00;4.50;;;;;;;13.26;100.00;100901.25;5225689;28;20032;-78
2022/10/23 07:46:01;;;;;;;11.98;4.90;;;;;;;13.32;100.00;100901.34;5225725;28;20021;-78
2022/10/23 07:48:32;;;;;;;8.68;4.45;;;;;;;13.39;100.00;100896.88;5225183;28;20037;-77
2022/10/23 07:51:07;;;;;;;14.52;5.03;;;;;;;13.45;100.00;100898.84;5225900;28;20035;-77
2022/10/23 07:53:38;;;;;;;8.98;4.63;;;;;;;13.52;100.00;100903.50;5225577;28;20096;-78
2022/10/23 07:56:19;;;;;;;17.55;5.40;;;;;;;13.54;100.00;100896.91;5225654;28;20021;-78
2022/10/23 07:58:52;;;;;;;10.02;4.13;;;;;;;13.60;100.00;100896.16;5224662;28;20033;-77
2022/10/23 08:01:38;;;;;;;11.10;4.30;;;;;;;13.66;100.00;100890.03;5224510;28;20490;-77
2022/10/23 08:04:10;;;;;;;8.50;4.78;;;;;;;13.70;100.00;100891.34;5225765;28;20449;-76
2022/10/23 08:06:40;;;;;;;7.15;3.95;;;;;;;13.76;100.00;100886.25;5225201;28;20027;-78
2022/10/23 08:09:10;;;;;;;8.90;4.22;;;;;;;13.78;100.00;100873.41;5224559;28;20037;-77
2022/10/23 08:11:41;;;;;;;9.95;4.22;;;;;;;13.84;100.00;100865.38;5224224;28;20029;-77
2022/10/23 08:14:11;;;;;;;12.98;4.28;;;;;;;13.89;100.00;100849.47;5225094;28;20025;-76
2022/10/23 08:16:42;;;;;;;9.23;3.90;;;;;;;13.94;100.00;100859.72;5225010;28;20045;-77
2022/10/23 08:19:12;;;;;;;10.75;4.57;;;;;;;13.98;100.00;100852.91;5223543;28;20104;-78
2022/10/23 08:21:43;;;;;;;9.77;4.07;;;;;;;14.02;100.00;100848.81;5224825;28;20033;-78
2022/10/23 08:24:13;;;;;;;8.50;4.10;;;;;;;14.03;100.00;100847.78;5224800;28;20025;-77
2022/10/23 08:26:44;;;;;;;11.90;3.80;;;;;;;14.06;100.00;100852.81;5223635;28;20032;-78
2022/10/23 08:29:14;;;;;;;8.13;4.38;;;;;;;14.12;100.00;100852.06;5224154;28;20109;-77
2022/10/23 08:31:45;;;;;;;7.13;3.85;;;;;;;14.20;100.00;100843.84;5224533;28;20630;-77
2022/10/23 08:34:17;;;;;;;9.15;4.13;;;;;;;14.29;100.00;100851.81;5224640;28;20025;-77
2022/10/23 08:36:48;;;;;;;6.65;3.67;;;;;;;14.34;100.00;100844.00;5223195;28;20079;-78
2022/10/23 08:39:18;;;;;;;9.05;4.43;;;;;;;14.37;100.00;100838.22;5223125;28;20024;-78
2022/10/23 08:41:50;;;;;;;6.95;3.78;;;;;;;14.42;100.00;100835.78;5224090;28;20035;-78
2022/10/23 08:44:30;;;;;;;9.88;3.72;;;;;;;14.45;100.00;100824.59;5224381;28;20486;-77
2022/10/23 08:47:01;;;;;;;11.98;4.05;;;;;;;14.50;100.00;100827.59;5223911;28;20017;-77
2022/10/23 08:49:43;;;;;;;5.43;3.10;;;;;;;14.55;100.00;100808.94;5224682;28;20028;-78
2022/10/23 08:52:19;;;;;;;8.60;3.13;;;;;;;14.63;100.00;100808.00;5224425;28;20025;-78
2022/10/23 08:55:06;;;;;;;10.80;3.92;;;;;;;14.72;100.00;100806.84;5224120;28;20025;-77
2022/10/23 08:57:44;;;;;;;12.18;3.33;;;;;;;14.76;100.00;100817.06;5223950;28;20028;-77
2022/10/23 09:00:16;;;;;;;7.18;3.33;;;;;;;14.87;100.00;100812.16;5224011;28;20040;-77
2022/10/23 09:02:50;;;;;;;7.40;2.80;;;;;;;14.90;100.00;100801.78;5224635;28;20029;-76
2022/10/23 09:05:26;;;;;;;8.07;2.90;;;;;;;14.95;100.00;100802.03;5222498;28;20025;-78
2022/10/23 09:08:26;;;;;;;7.10;3.35;;;;;;;14.96;100.00;100784.81;5223756;28;20032;-78
2022/10/23 09:11:05;;;;;;;11.07;3.35;;;;;;;14.98;100.00;100780.03;5223094;28;20486;-78
2022/10/23 09:13:51;;;;;;;10.32;3.50;;;;;;;14.98;100.00;100777.31;5210987;28;20382;-77
2022/10/23 09:16:39;;;;;;;8.00;2.97;;;;;;;14.99;100.00;100770.88;5223888;28;20502;-77
2022/10/23 09:19:18;;;;;;;7.32;3.80;;;;;;;15.06;100.00;100764.69;5224079;28;20028;-77
2022/10/23 09:21:49;;;;;;;12.75;3.00;;;;;;;15.14;100.00;100759.16;5211715;28;20031;-76
2022/10/23 09:24:22;;;;;;;8.55;3.03;;;;;;;15.19;100.00;100737.75;5223711;28;20482;-77
2022/10/23 09:26:53;;;;;;;6.40;3.17;;;;;;;15.25;100.00;100726.16;5223531;28;20493;-77
2022/10/23 09:29:31;;;;;;;7.43;2.80;;;;;;;15.27;100.00;100721.41;5223770;28;20024;-77
2022/10/23 09:32:05;;;;;;;9.95;2.80;;;;;;;15.26;100.00;100749.44;5223618;28;20043;-76
2022/10/23 09:34:35;;;;;;;5.57;2.97;;;;;;;15.29;100.00;100741.78;5222239;28;20025;-76
2022/10/23 09:37:30;;;;;;;9.05;3.30;;;;;;;15.30;100.00;100731.78;5223070;28;20032;-76
2022/10/23 09:40:49;;;;;;;6.00;2.78;;;;;;;15.32;100.00;100721.63;5223967;28;20032;-76
2022/10/23 09:43:26;;;;;;;9.13;2.97;;;;;;;15.37;100.00;100724.56;5201875;28;20047;-74
2022/10/23 09:46:02;;;;;;;6.78;3.15;;;;;;;15.43;100.00;100720.22;5211601;28;20024;-73
2022/10/23 09:48:33;;;;;;;8.80;3.15;;;;;;;15.52;100.00;100729.84;5221568;28;20083;-74
2022/10/23 09:51:24;;;;;;;6.43;3.05;;;;;;;15.64;100.00;100733.66;5223298;28;20025;-74
2022/10/23 09:53:57;;;;;;;4.88;2.80;;;;;;;15.71;100.00;100734.53;5223227;28;20554;-74
2022/10/23 09:56:33;;;;;;;9.88;3.45;;;;;;;15.79;100.00;100733.50;5223112;28;20051;-74
2022/10/23 09:59:17;;;;;;;9.10;3.08;;;;;;;15.89;100.00;100723.13;5223403;28;20060;-74
2022/10/23 10:01:54;;;;;;;9.90;3.05;;;;;;;16.02;100.00;100717.75;5222565;28;20028;-74
2022/10/23 10:04:40;;;;;;;9.98;3.33;;;;;;;16.16;100.00;100724.00;5223703;28;20032;-75
2022/10/23 10:07:23;;;;;;;8.85;3.33;;;;;;;16.27;100.00;100723.41;5243821;28;20431;-74
2022/10/23 10:09:56;;;;;;;9.52;3.10;;;;;;;16.38;100.00;100718.44;5222890;28;20436;-74
2022/10/23 10:12:56;;;;;;;8.20;3.00;;;;;;;16.48;100.00;100713.44;5223750;28;20021;-74
2022/10/23 10:15:35;;;;;;;4.53;3.05;;;;;;;16.60;100.00;100719.03;5213826;28;20029;-74
2022/10/23 10:18:28;;;;;;;10.30;2.70;;;;;;;16.75;100.00;100698.84;5222242;28;20024;-74
2022/10/23 10:21:13;;;;;;;9.43;3.10;;;;;;;16.88;100.00;100706.13;5222140;28;20445;-74
2022/10/23 10:23:59;;;;;;;8.65;3.08;;;;;;;17.02;100.00;100702.38;5223644;28;20833;-74
2022/10/23 10:26:51;;;;;;;5.85;3.10;;;;;;;17.16;100.00;100724.00;5210629;28;20467;-74
2022/10/23 10:29:39;;;;;;;8.43;2.75;;;;;;;17.22;100.00;100724.00;5222995;28;20037;-75
2022/10/23 10:32:39;;;;;;;7.53;2.72;;;;;;;17.24;100.00;100716.47;5222832;28;20028;-75
2022/10/23 10:35:19;;;;;;;14.43;2.70;;;;;;;17.18;100.00;100720.03;5223826;28;20506;-75
2022/10/23 10:38:14;;;;;;;5.93;2.40;;;;;;;17.28;100.00;100715.00;5222118;28;20033;-74
2022/10/23 10:40:47;;;;;;;7.72;2.78;;;;;;;17.42;100.00;100701.38;5223014;28;20064;-75
2022/10/23 10:43:47;;;;;;;5.47;2.80;;;;;;;17.43;100.00;100694.94;5222858;28;20040;-76
2022/10/23 10:46:38;;;;;;;9.05;3.05;;;;;;;17.48;100.00;100700.53;5219933;28;20513;-81
2022/10/23 10:49:31;;;;;;;10.35;2.90;;;;;;;17.53;100.00;100682.56;5211313;28;20029;-76
2022/10/23 10:52:24;;;;;;;7.22;3.38;;;;;;;17.58;100.00;100687.34;5224949;28;20487;-84
2022/10/23 10:55:13;;;;;;;7.47;3.45;;;;;;;17.62;100.00;100675.03;5224624;28;20025;-85
2022/10/23 10:57:49;;;;;;;10.23;2.67;;;;;;;17.70;100.00;100669.34;5221884;28;20546;-85
2022/10/23 11:00:22;;;;;;;5.68;2.42;;;;;;;17.71;100.00;100664.72;5223604;28;20032;-83
2022/10/23 11:02:59;;;;;;;9.18;2.88;;;;;;;17.71;100.00;100662.03;5224530;28;20036;-82
2022/10/23 11:05:43;;;;;;;9.80;2.95;;;;;;;17.81;100.00;100654.28;5228317;28;20032;-82
2022/10/23 11:08:20;;;;;;;17.35;3.28;;;;;;;17.83;100.00;100644.06;5226229;28;20132;-83
2022/10/23 11:10:56;;;;;;;6.93;3.17;;;;;;;17.92;100.00;100641.88;5229108;28;20395;-84
2022/10/23 11:13:33;;;;;;;5.95;3.15;;;;;;;17.97;100.00;100647.47;5216590;28;20048;-83
2022/10/23 11:16:13;;;;;;;6.45;2.60;;;;;;;18.01;100.00;100643.28;5260537;28;20021;-83
2022/10/23 11:18:52;;;;;;;6.90;2.95;;;;;;;18.08;100.00;100646.78;5227613;28;20029;-84
2022/10/23 11:21:34;;;;;;;5.30;2.70;;;;;;;18.11;100.00;100641.75;5227747;28;20086;-84
2022/10/23 11:24:31;;;;;;;9.57;2.85;;;;;;;18.09;100.00;100630.28;5229506;28;20025;-80
2022/10/23 11:27:15;;;;;;;9.40;2.58;;;;;;;18.02;100.00;100632.22;5230331;28;20021;-80
2022/10/23 11:29:53;;;;;;;9.20;3.10;;;;;;;18.03;100.00;100631.16;5218374;28;20501;-80
2022/10/23 11:32:48;;;;;;;10.38;3.22;;;;;;;18.06;100.00;100613.59;5228614;28;20357;-81
2022/10/23 11:35:23;;;;;;;8.52;2.88;;;;;;;18.11;100.00;100616.47;5229796;28;20386;-80
2022/10/23 11:38:09;;;;;;;8.82;2.70;;;;;;;18.18;100.00;100611.84;5262470;28;20029;-80
2022/10/23 11:41:32;;;;;;;6.00;2.65;;;;;;;18.24;100.00;100610.94;5229729;28;20029;-81
2022/10/23 11:44:43;;;;;;;8.07;3.00;;;;;;;18.34;100.00;100605.00;5216871;28;20131;-77
2022/10/23 11:47:34;;;;;;;11.00;3.08;;;;;;;18.35;100.00;100596.63;5225428;28;20079;-76
2022/10/23 11:50:08;;;;;;;7.18;2.97;;;;;;;18.37;100.00;100594.53;5226125;28;20108;-76
2022/10/23 11:52:51;;;;;;;9.75;3.28;;;;;;;18.49;100.00;100585.66;5226638;28;20033;-77